Time;durP1;ratioP1;P1;durP2;ratioP2;P2;SDS_P1;SDS_P2;PMS_P1;PMS_P2;Temp;Humidity;BMP_temperature;BMP_pressure;BME280_temperature;BME280_humidity;BME280_pressure;Samples;Min_cycle;Max_cycle;Signal;HPM_P1;HPM_P2
2021/01/29 00:00:44;;;;;;;3.00;1.85;;;;;;;-3.68;89.21;92469.09;5067094;28;20102;-86
2021/01/29 00:03:13;;;;;;;2.95;1.52;;;;;;;-3.65;88.78;92477.13;5071443;28;20094;-86
2021/01/29 00:05:41;;;;;;;2.63;1.88;;;;;;;-3.61;88.18;92477.66;5071579;28;20044;-87
2021/01/29 00:08:09;;;;;;;4.60;1.77;;;;;;;-3.54;88.00;92468.63;5071509;28;20052;-86
2021/01/29 00:10:35;;;;;;;3.03;2.03;;;;;;;-3.54;86.95;92466.09;5064519;28;20098;-85
2021/01/29 00:13:03;;;;;;;3.05;1.83;;;;;;;-3.51;87.21;92473.34;5071423;28;20064;-85
2021/01/29 00:15:30;;;;;;;3.10;1.15;;;;;;;-3.52;87.14;92464.22;5071283;28;20045;-86
2021/01/29 00:17:56;;;;;;;5.35;1.17;;;;;;;-3.52;87.35;92465.97;5071561;28;20113;-87
2021/01/29 00:20:25;;;;;;;2.53;1.35;;;;;;;-3.59;88.11;92457.41;5071491;28;20094;-86
2021/01/29 00:22:51;;;;;;;2.97;1.70;;;;;;;-3.53;88.01;92469.38;5071462;28;20052;-86
2021/01/29 00:25:24;;;;;;;2.95;1.60;;;;;;;-3.55;88.05;92483.81;5071233;28;20052;-86
2021/01/29 00:27:50;;;;;;;1.67;1.58;;;;;;;-3.59;88.01;92480.00;5071156;28;20083;-86
2021/01/29 00:30:20;;;;;;;1.23;1.02;;;;;;;-3.61;88.51;92485.19;5071113;28;20091;-87
2021/01/29 00:32:47;;;;;;;1.65;1.17;;;;;;;-3.65;88.91;92503.97;5071256;28;20428;-85
2021/01/29 00:35:13;;;;;;;2.40;1.35;;;;;;;-3.69;87.90;92505.16;5071028;28;20048;-86
2021/01/29 00:37:40;;;;;;;2.88;2.00;;;;;;;-3.77;87.62;92503.34;5070738;28;20048;-86
2021/01/29 00:40:08;;;;;;;3.38;1.55;;;;;;;-3.72;88.56;92510.47;5071165;28;20047;-85
2021/01/29 00:42:34;;;;;;;4.97;2.00;;;;;;;-3.91;88.35;92474.50;5070807;28;20059;-85
2021/01/29 00:45:01;;;;;;;2.05;1.85;;;;;;;-3.68;88.57;92514.28;5070845;28;20475;-86
2021/01/29 00:47:28;;;;;;;1.30;0.98;;;;;;;-3.64;87.90;92513.06;5071030;28;20056;-85
2021/01/29 00:49:54;;;;;;;2.17;1.30;;;;;;;-3.60;88.69;92511.88;5071093;28;20056;-83
2021/01/29 00:52:20;;;;;;;4.35;1.90;;;;;;;-3.59;88.07;92517.66;5070636;28;20060;-83
2021/01/29 00:54:46;;;;;;;;;;;;;;;-3.54;88.27;92520.53;5070943;28;20489;-84
2021/01/29 00:57:13;;;;;;;2.05;1.75;;;;;;;-3.52;88.91;92508.66;5070811;28;19921;-83
2021/01/29 00:59:39;;;;;;;4.28;2.10;;;;;;;-3.46;87.73;92517.31;5070742;28;20412;-83
2021/01/29 01:02:06;;;;;;;4.45;1.83;;;;;;;-3.41;88.22;92513.47;5070830;28;20060;-83
2021/01/29 01:04:33;;;;;;;2.78;2.28;;;;;;;-3.38;87.30;92513.16;5070758;28;20048;-84
2021/01/29 01:06:59;;;;;;;1.52;1.10;;;;;;;-3.31;87.23;92508.38;5070576;28;20477;-85
2021/01/29 01:09:25;;;;;;;;;;;;;;;-3.27;86.26;92502.16;5071118;28;20455;-84
2021/01/29 01:11:52;;;;;;;3.78;2.00;;;;;;;-3.32;85.73;92489.22;5070489;28;19925;-85
2021/01/29 01:14:18;;;;;;;;;;;;;;;-3.23;85.58;92490.84;5071375;28;20040;-85
2021/01/29 01:16:44;;;;;;;1.30;1.20;;;;;;;-3.31;85.60;92495.00;5070734;28;19985;-85
2021/01/29 01:19:11;;;;;;;2.80;1.83;;;;;;;-3.33;85.69;92477.59;5070781;28;20040;-86
2021/01/29 01:21:38;;;;;;;;;;;;;;;-3.21;85.76;92488.22;5070979;28;20052;-85
2021/01/29 01:24:05;;;;;;;2.45;1.45;;;;;;;-3.22;85.93;92472.38;5070547;28;19920;-83
2021/01/29 01:26:31;;;;;;;0.73;0.55;;;;;;;-3.23;85.77;92477.53;5070407;28;20052;-85
2021/01/29 01:28:57;;;;;;;;;;;;;;;-3.22;86.04;92471.56;5070545;28;20040;-85
2021/01/29 01:31:23;;;;;;;0.55;0.55;;;;;;;-3.21;85.73;92460.56;5070710;28;20292;-85
2021/01/29 01:33:49;;;;;;;1.80;1.40;;;;;;;-3.15;86.01;92449.19;5070668;28;20056;-85
2021/01/29 01:36:16;;;;;;;;;;;;;;;-3.16;86.08;92445.09;5070811;28;20048;-87
2021/01/29 01:38:44;;;;;;;1.17;0.98;;;;;;;-3.20;85.51;92436.25;5070423;28;19975;-85
2021/01/29 01:41:11;;;;;;;1.75;1.05;;;;;;;-3.15;85.25;92442.41;5070236;28;20173;-85
2021/01/29 01:43:38;;;;;;;1.38;0.93;;;;;;;-3.06;84.62;92447.50;5070365;28;20508;-85
2021/01/29 01:46:07;;;;;;;2.38;1.17;;;;;;;-3.11;84.31;92428.63;5070373;28;20052;-85
2021/01/29 01:48:40;;;;;;;1.58;0.93;;;;;;;-3.00;84.49;92435.13;5070210;28;20057;-85
2021/01/29 01:51:09;;;;;;;4.10;0.93;;;;;;;-2.94;84.64;92448.84;5070334;28;20448;-86
2021/01/29 01:53:39;;;;;;;1.63;1.15;;;;;;;-2.87;83.76;92444.81;5070228;28;20048;-86
2021/01/29 01:56:11;;;;;;;1.63;0.80;;;;;;;-2.89;85.41;92436.63;5070523;28;20051;-85
2021/01/29 01:58:37;;;;;;;2.10;1.15;;;;;;;-2.85;84.54;92447.19;5070266;28;20059;-85
2021/01/29 02:01:04;;;;;;;4.60;0.93;;;;;;;-2.81;84.17;92438.41;5070333;28;20440;-86
2021/01/29 02:03:34;;;;;;;0.85;0.73;;;;;;;-2.83;83.44;92438.56;5070137;28;20044;-86
2021/01/29 02:06:03;;;;;;;1.20;0.65;;;;;;;-2.74;83.01;92448.69;5073592;28;20040;-86
2021/01/29 02:08:31;;;;;;;1.73;0.95;;;;;;;-2.63;83.11;92452.66;5073950;28;20389;-86
2021/01/29 02:10:58;;;;;;;2.08;1.25;;;;;;;-2.62;83.33;92460.06;5073708;28;20098;-86
2021/01/29 02:13:25;;;;;;;1.70;1.35;;;;;;;-2.62;83.07;92456.75;5073716;28;20063;-86
2021/01/29 02:15:57;;;;;;;2.00;1.80;;;;;;;-2.67;83.27;92442.09;5073789;28;20052;-86
2021/01/29 02:18:32;;;;;;;1.10;1.00;;;;;;;-2.59;83.52;92451.44;5073564;28;20044;-85
2021/01/29 02:21:38;;;;;;;2.70;0.97;;;;;;;-2.63;83.56;92445.91;5073603;28;20046;-85
2021/01/29 02:24:48;;;;;;;1.10;1.00;;;;;;;-2.64;84.31;92443.53;5068318;28;20049;-85
2021/01/29 02:27:45;;;;;;;2.15;1.88;;;;;;;-2.62;84.77;92449.19;5073688;28;20094;-86
2021/01/29 02:30:33;;;;;;;1.27;0.82;;;;;;;-2.71;84.79;92439.09;5039083;28;20090;-86
2021/01/29 02:33:46;;;;;;;1.48;0.95;;;;;;;-2.66;86.02;92441.16;5073303;28;20041;-86
2021/01/29 02:36:57;;;;;;;4.20;1.50;;;;;;;-2.65;86.87;92442.75;5073558;28;20048;-85
2021/01/29 02:39:37;;;;;;;4.50;0.90;;;;;;;-2.77;87.45;92439.69;5025327;28;20040;-86
2021/01/29 02:42:45;;;;;;;0.52;0.38;;;;;;;-3.05;87.83;92388.78;5073302;28;20048;-86
2021/01/29 02:45:22;;;;;;;2.63;1.30;;;;;;;-2.84;88.16;92423.63;5016613;28;20055;-86
2021/01/29 02:47:54;;;;;;;1.75;0.70;;;;;;;-2.76;88.80;92431.22;5073015;28;20056;-85
2021/01/29 02:50:36;;;;;;;1.63;1.25;;;;;;;-2.75;89.90;92426.97;5072994;28;20508;-85
2021/01/29 02:53:06;;;;;;;1.05;0.68;;;;;;;-2.75;90.56;92432.00;5073153;28;20049;-86
2021/01/29 02:55:37;;;;;;;1.35;0.85;;;;;;;-2.77;90.70;92419.59;5073064;28;20488;-86
2021/01/29 02:58:12;;;;;;;1.85;1.15;;;;;;;-2.61;89.83;92425.63;5072760;28;20045;-86
2021/01/29 03:00:46;;;;;;;0.80;0.80;;;;;;;-2.60;90.33;92419.69;5072862;28;20404;-85
2021/01/29 03:03:18;;;;;;;1.38;0.77;;;;;;;-2.57;90.10;92409.31;5072974;28;20048;-86
2021/01/29 03:05:52;;;;;;;0.70;0.60;;;;;;;-2.61;90.81;92411.34;5072728;28;20055;-85
2021/01/29 03:08:23;;;;;;;3.67;1.25;;;;;;;-2.61;91.53;92405.50;5072615;28;20497;-86
2021/01/29 03:10:56;;;;;;;0.70;0.68;;;;;;;-2.69;92.51;92394.50;5072630;28;20049;-86
2021/01/29 03:13:28;;;;;;;0.57;0.50;;;;;;;-2.54;93.32;92409.03;5072880;28;20048;-86
2021/01/29 03:16:00;;;;;;;1.02;0.93;;;;;;;-2.60;94.28;92412.16;5071756;28;20045;-86
2021/01/29 03:18:32;;;;;;;0.70;0.57;;;;;;;-2.62;94.66;92406.47;5072429;28;20595;-87
2021/01/29 03:21:04;;;;;;;2.80;1.00;;;;;;;-2.58;95.29;92411.03;5072310;28;20051;-85
2021/01/29 03:23:36;;;;;;;1.00;0.90;;;;;;;-2.67;95.62;92406.91;5072813;28;20052;-85
2021/01/29 03:26:10;;;;;;;1.33;0.75;;;;;;;-2.64;95.98;92413.38;5072374;28;20071;-84
2021/01/29 03:28:42;;;;;;;0.82;0.77;;;;;;;-2.60;96.15;92399.56;5072423;28;20040;-84
2021/01/29 03:31:13;;;;;;;1.17;0.65;;;;;;;-2.62;96.71;92382.13;5072310;28;20493;-85
2021/01/29 03:33:42;;;;;;;1.52;1.42;;;;;;;-2.61;97.19;92387.91;5072122;28;20048;-86
2021/01/29 03:36:14;;;;;;;3.78;1.10;;;;;;;-2.58;97.28;92383.38;5072265;28;20040;-86
2021/01/29 03:38:45;;;;;;;0.55;0.47;;;;;;;-2.58;97.96;92383.38;5072306;28;20049;-85
2021/01/29 03:41:19;;;;;;;0.60;0.43;;;;;;;-2.54;97.79;92386.41;5072025;28;20049;-85
2021/01/29 03:43:59;;;;;;;1.33;0.57;;;;;;;-2.58;97.13;92393.44;5071973;28;20053;-83
2021/01/29 03:46:35;;;;;;;1.42;0.80;;;;;;;-2.55;96.84;92384.81;5072208;28;20047;-85
2021/01/29 03:49:11;;;;;;;0.82;0.45;;;;;;;-2.56;96.66;92380.72;5071927;28;20063;-85
2021/01/29 03:51:48;;;;;;;2.30;0.55;;;;;;;-2.58;94.92;92375.81;5072003;28;20443;-86
2021/01/29 03:54:23;;;;;;;0.40;0.30;;;;;;;-2.60;94.88;92370.16;5071753;28;20666;-84
2021/01/29 03:57:03;;;;;;;0.88;0.82;;;;;;;-2.43;94.64;92402.94;5071729;28;20093;-85
2021/01/29 03:59:36;;;;;;;0.38;0.38;;;;;;;-2.37;93.24;92396.53;5071746;28;20098;-84
2021/01/29 04:02:10;;;;;;;0.40;0.40;;;;;;;-2.37;92.91;92386.47;5071691;28;20044;-84
2021/01/29 04:04:48;;;;;;;1.67;0.65;;;;;;;-2.30;93.01;92389.94;5071559;28;20071;-84
2021/01/29 04:07:22;;;;;;;1.17;0.68;;;;;;;-2.28;93.21;92401.44;5071871;28;20071;-86
2021/01/29 04:09:54;;;;;;;3.72;1.85;;;;;;;-2.24;94.27;92401.13;5071648;28;20078;-84
2021/01/29 04:12:28;;;;;;;1.02;0.85;;;;;;;-2.23;93.80;92390.13;5071618;28;20189;-86
2021/01/29 04:15:02;;;;;;;0.65;0.65;;;;;;;-2.25;94.02;92379.41;5071597;28;20047;-85
2021/01/29 04:17:35;;;;;;;1.23;0.68;;;;;;;-2.22;93.46;92384.94;5071571;28;20048;-84
2021/01/29 04:20:12;;;;;;;1.55;0.80;;;;;;;-2.19;93.05;92369.53;5071610;28;20053;-86
2021/01/29 04:22:42;;;;;;;2.45;1.33;;;;;;;-2.13;91.99;92369.88;5071289;28;20052;-87
2021/01/29 04:25:17;;;;;;;0.88;0.43;;;;;;;-2.12;91.59;92354.63;5071235;28;20044;-85
2021/01/29 04:27:50;;;;;;;0.77;0.77;;;;;;;-2.07;91.02;92360.00;5071206;28;20044;-85
2021/01/29 04:30:21;;;;;;;1.02;0.77;;;;;;;-2.14;89.93;92346.44;5071103;28;20055;-85
2021/01/29 04:32:51;;;;;;;1.05;0.65;;;;;;;-2.02;90.88;92379.66;5071449;28;20056;-86
2021/01/29 04:35:21;;;;;;;1.23;0.80;;;;;;;-2.12;90.89;92357.16;5071213;28;20056;-88
2021/01/29 04:38:02;;;;;;;0.32;0.28;;;;;;;-1.98;91.36;92380.13;5071109;28;20056;-83
2021/01/29 04:40:31;;;;;;;0.50;0.40;;;;;;;-1.98;93.00;92375.91;5071230;28;20056;-83
2021/01/29 04:43:30;;;;;;;1.33;0.88;;;;;;;-1.99;93.37;92360.94;5070824;28;20055;-87
2021/01/29 04:46:17;;;;;;;1.10;0.77;;;;;;;-2.14;93.43;92379.13;5071241;28;20052;-86
2021/01/29 04:48:50;;;;;;;0.80;0.52;;;;;;;-2.01;93.19;92388.78;5070937;28;20571;-85
2021/01/29 04:52:01;;;;;;;0.38;0.30;;;;;;;-2.12;93.81;92366.41;5070850;28;20102;-86
2021/01/29 04:54:41;;;;;;;1.20;0.60;;;;;;;-1.98;92.71;92385.97;5028589;28;20042;-83
2021/01/29 04:57:49;;;;;;;0.98;0.80;;;;;;;-1.89;92.28;92394.31;5064797;28;20488;-87
2021/01/29 05:00:54;;;;;;;1.20;1.00;;;;;;;-1.87;91.94;92394.94;5008803;28;20052;-85
2021/01/29 05:04:13;;;;;;;1.80;1.15;;;;;;;-1.81;91.40;92406.13;5070896;28;20048;-86
2021/01/29 05:07:02;;;;;;;0.88;0.80;;;;;;;-1.76;90.63;92394.66;5034712;28;20055;-83
2021/01/29 05:10:04;;;;;;;1.02;0.93;;;;;;;-1.73;91.14;92390.25;5068326;28;20041;-83
2021/01/29 05:12:54;;;;;;;1.15;0.40;;;;;;;-1.73;90.89;92386.00;5070707;28;20045;-85
2021/01/29 05:15:42;;;;;;;0.95;0.52;;;;;;;-1.69;90.77;92387.25;5070657;28;20044;-84
2021/01/29 05:18:37;;;;;;;4.72;1.33;;;;;;;-1.68;90.39;92385.50;5070787;28;20049;-83
2021/01/29 05:21:49;;;;;;;1.73;0.40;;;;;;;-1.61;90.64;92386.50;5067859;28;20049;-85
2021/01/29 05:24:37;;;;;;;3.90;0.95;;;;;;;-1.56;89.36;92381.78;5070731;28;20477;-83
2021/01/29 05:27:30;;;;;;;0.45;0.40;;;;;;;-1.53;89.62;92400.81;5070570;28;20140;-84
2021/01/29 05:30:09;;;;;;;1.35;0.57;;;;;;;-1.64;89.79;92382.56;5070445;28;20409;-86
2021/01/29 05:33:09;;;;;;;1.58;0.88;;;;;;;-1.48;89.41;92401.16;5070689;28;20102;-85
2021/01/29 05:36:09;;;;;;;2.33;1.50;;;;;;;-1.46;89.35;92404.28;5037779;28;20055;-86
2021/01/29 05:38:55;;;;;;;2.72;2.47;;;;;;;-1.41;89.07;92407.13;5070388;28;20052;-84
2021/01/29 05:41:56;;;;;;;0.90;0.63;;;;;;;-1.44;89.90;92394.84;5074314;28;20052;-85
2021/01/29 05:44:42;;;;;;;2.22;1.48;;;;;;;-1.39;90.10;92395.16;5074354;28;20150;-84
2021/01/29 05:47:25;;;;;;;1.98;1.25;;;;;;;-1.38;90.02;92388.41;5074523;28;20044;-85
2021/01/29 05:50:06;;;;;;;1.30;1.20;;;;;;;-1.40;90.47;92386.03;5074307;28;20048;-84
2021/01/29 05:52:59;;;;;;;1.48;1.27;;;;;;;-1.31;89.95;92393.59;5073919;28;20056;-85
2021/01/29 05:55:43;;;;;;;1.80;1.02;;;;;;;-1.29;90.24;92396.75;5074179;28;20060;-86
2021/01/29 05:58:41;;;;;;;1.38;0.93;;;;;;;-1.21;90.19;92405.09;5074111;28;20051;-84
2021/01/29 06:01:35;;;;;;;3.00;1.15;;;;;;;-1.20;90.77;92410.91;5070303;28;20496;-86
2021/01/29 06:04:15;;;;;;;1.50;0.90;;;;;;;-1.17;91.04;92409.81;5065843;28;20052;-85
2021/01/29 06:07:11;;;;;;;1.92;1.00;;;;;;;-1.19;91.05;92397.38;5073794;28;20405;-84
2021/01/29 06:10:11;;;;;;;1.83;1.30;;;;;;;-1.18;90.84;92398.94;5044730;28;20044;-85
2021/01/29 06:12:57;;;;;;;1.40;0.60;;;;;;;-1.15;91.03;92406.16;5062289;28;20063;-84
2021/01/29 06:15:51;;;;;;;1.77;1.20;;;;;;;-1.24;91.31;92390.25;5064993;28;20417;-85
2021/01/29 06:18:33;;;;;;;2.47;1.48;;;;;;;-1.12;91.26;92421.00;5073398;28;20089;-86
2021/01/29 06:21:30;;;;;;;2.85;1.42;;;;;;;-1.05;91.38;92428.72;5073649;28;20045;-84
2021/01/29 06:24:29;;;;;;;1.75;1.65;;;;;;;-1.06;91.21;92432.19;5060985;28;20048;-85
2021/01/29 06:27:14;;;;;;;1.00;0.88;;;;;;;-1.16;91.97;92407.13;5073628;28;20048;-85
2021/01/29 06:30:15;;;;;;;2.60;1.35;;;;;;;-1.08;92.26;92413.88;5073599;28;20045;-84
2021/01/29 06:33:04;;;;;;;5.50;1.40;;;;;;;-1.04;92.67;92414.34;5073368;28;20421;-85
2021/01/29 06:35:45;;;;;;;1.80;1.42;;;;;;;-0.97;92.44;92418.59;5068599;28;20053;-85
2021/01/29 06:38:22;;;;;;;3.75;2.05;;;;;;;-0.89;92.17;92409.47;5068284;28;20048;-84
2021/01/29 06:41:00;;;;;;;3.22;2.17;;;;;;;-0.90;92.22;92400.31;5070183;28;20075;-84
2021/01/29 06:44:03;;;;;;;4.82;2.35;;;;;;;-0.87;92.43;92400.81;5072959;28;20105;-84
2021/01/29 06:46:43;;;;;;;6.00;2.88;;;;;;;-0.93;92.88;92398.13;5062813;28;20574;-82
2021/01/29 06:49:35;;;;;;;4.65;2.20;;;;;;;-0.93;92.80;92403.94;5073203;28;20056;-82
2021/01/29 06:52:34;;;;;;;2.35;1.30;;;;;;;-0.88;92.67;92406.78;5071885;28;20443;-83
2021/01/29 06:55:23;;;;;;;4.20;1.90;;;;;;;-0.81;93.69;92409.47;5065716;28;20052;-82
2021/01/29 06:58:07;;;;;;;1.95;0.85;;;;;;;-0.87;93.47;92412.63;5072917;28;20053;-83
2021/01/29 07:00:51;;;;;;;0.88;0.68;;;;;;;-0.84;93.47;92408.03;5072703;28;20056;-82
2021/01/29 07:03:54;;;;;;;6.38;1.52;;;;;;;-0.73;93.71;92413.72;5072851;28;20053;-84
2021/01/29 07:06:37;;;;;;;1.25;0.77;;;;;;;-0.55;92.55;92421.09;5072528;28;20044;-83
2021/01/29 07:09:18;;;;;;;1.27;0.88;;;;;;;-0.47;92.17;92427.84;5072946;28;20048;-84
2021/01/29 07:12:15;;;;;;;3.03;1.45;;;;;;;-0.43;91.84;92414.75;5072811;28;20062;-82
2021/01/29 07:14:55;;;;;;;1.45;1.13;;;;;;;-0.43;90.89;92411.41;5072679;28;20048;-82
2021/01/29 07:17:40;;;;;;;4.28;2.55;;;;;;;-0.33;90.21;92431.44;5072802;28;20123;-84
2021/01/29 07:20:21;;;;;;;5.18;1.70;;;;;;;-0.33;89.91;92418.81;5072416;28;20064;-84
2021/01/29 07:23:09;;;;;;;2.22;1.45;;;;;;;-0.33;89.43;92421.34;5061243;28;20118;-83
2021/01/29 07:25:42;;;;;;;4.75;2.95;;;;;;;-0.40;90.15;92421.19;5066184;28;20530;-82
2021/01/29 07:28:28;;;;;;;4.13;2.80;;;;;;;-0.37;90.38;92430.19;5072338;28;20094;-83
2021/01/29 07:31:12;;;;;;;3.20;1.63;;;;;;;-0.40;90.47;92421.19;5072260;28;20045;-84
2021/01/29 07:33:46;;;;;;;1.38;1.08;;;;;;;-0.44;90.23;92387.94;5072320;28;20049;-80
2021/01/29 07:36:37;;;;;;;2.60;1.08;;;;;;;-0.21;90.80;92417.50;5072175;28;20443;-84
2021/01/29 07:39:56;;;;;;;3.03;1.38;;;;;;;-0.15;89.44;92434.53;5062374;28;20044;-83
2021/01/29 07:42:52;;;;;;;1.33;0.90;;;;;;;-0.01;88.69;92428.00;4977353;28;20148;-83
2021/01/29 07:45:35;;;;;;;2.38;1.15;;;;;;;0.12;88.31;92419.91;4965411;28;20054;-82
2021/01/29 07:48:34;;;;;;;3.35;1.92;;;;;;;0.19;87.95;92420.00;5041389;28;20056;-83
2021/01/29 07:51:08;;;;;;;1.77;1.23;;;;;;;0.30;87.55;92406.22;5061353;28;20065;-81
2021/01/29 07:53:41;;;;;;;1.30;0.80;;;;;;;0.43;87.00;92412.47;5054836;28;20060;-84
2021/01/29 07:56:30;;;;;;;4.32;1.80;;;;;;;0.55;87.52;92428.03;5056591;28;20545;-82
2021/01/29 07:59:14;;;;;;;6.13;2.72;;;;;;;0.65;86.42;92436.19;5060368;28;20070;-82
2021/01/29 08:01:53;;;;;;;3.65;2.13;;;;;;;0.55;86.57;92443.19;5057604;28;20102;-82
2021/01/29 08:04:31;;;;;;;3.47;1.50;;;;;;;0.54;86.72;92427.25;5054686;28;20408;-83
2021/01/29 08:07:04;;;;;;;3.22;2.15;;;;;;;0.56;87.13;92434.66;5055890;28;20091;-82
2021/01/29 08:09:36;;;;;;;7.38;2.97;;;;;;;0.55;88.06;92425.50;5061080;28;20064;-82
2021/01/29 08:12:06;;;;;;;8.07;1.98;;;;;;;0.49;87.91;92432.00;5056719;28;20147;-83
2021/01/29 08:15:00;;;;;;;6.57;4.07;;;;;;;0.52;87.93;92424.88;5056199;28;20052;-82
2021/01/29 08:17:58;;;;;;;8.05;4.47;;;;;;;0.61;87.88;92447.59;5062627;28;20056;-83
2021/01/29 08:20:42;;;;;;;1.92;1.23;;;;;;;0.56;87.16;92444.78;5030204;28;20048;-83
2021/01/29 08:23:20;;;;;;;3.42;1.42;;;;;;;0.56;88.07;92454.88;5054695;28;20083;-82
2021/01/29 08:26:35;;;;;;;5.30;2.15;;;;;;;0.68;87.72;92448.47;5054935;28;20053;-84
2021/01/29 08:29:57;;;;;;;5.13;1.67;;;;;;;0.71;87.89;92445.63;5053829;28;20052;-83
2021/01/29 08:32:39;;;;;;;3.00;1.88;;;;;;;0.62;87.36;92413.75;5065988;28;20055;-84
2021/01/29 08:35:30;;;;;;;10.63;4.53;;;;;;;0.83;86.95;92447.75;5064040;28;20118;-83
2021/01/29 08:38:03;;;;;;;7.97;2.65;;;;;;;0.74;87.09;92447.81;5055456;28;20049;-83
2021/01/29 08:40:33;;;;;;;3.60;2.30;;;;;;;0.84;86.89;92451.84;5071240;28;20044;-84
2021/01/29 08:43:34;;;;;;;13.15;4.57;;;;;;;0.92;87.00;92456.84;5071077;28;20114;-84
2021/01/29 08:46:12;;;;;;;63.65;19.85;;;;;;;0.92;87.04;92466.94;5066608;28;20131;-84
2021/01/29 08:48:58;;;;;;;18.63;6.13;;;;;;;0.99;86.54;92483.03;5070953;28;20489;-83
2021/01/29 08:51:29;;;;;;;8.93;3.42;;;;;;;0.97;86.59;92487.47;5071068;28;20052;-83
2021/01/29 08:54:12;;;;;;;10.27;3.90;;;;;;;0.92;86.80;92490.50;5070760;28;20059;-83
2021/01/29 08:56:47;;;;;;;3.47;1.90;;;;;;;1.02;86.26;92492.03;5071146;28;20048;-83
2021/01/29 08:59:17;;;;;;;8.25;3.20;;;;;;;1.07;86.18;92494.84;5070696;28;20497;-83
2021/01/29 09:01:53;;;;;;;8.48;2.72;;;;;;;1.11;86.07;92490.22;5070848;28;20044;-83
2021/01/29 09:04:27;;;;;;;10.35;2.65;;;;;;;1.11;85.95;92480.13;5070764;28;20519;-82
2021/01/29 09:06:56;;;;;;;4.15;2.15;;;;;;;1.10;87.69;92486.13;5070693;28;20057;-83
2021/01/29 09:09:25;;;;;;;6.57;2.08;;;;;;;1.17;87.53;92481.97;5070959;28;20394;-82
2021/01/29 09:11:55;;;;;;;2.47;2.28;;;;;;;1.16;87.83;92486.22;5070576;28;20041;-82
2021/01/29 09:14:27;;;;;;;8.30;2.35;;;;;;;1.20;87.80;92477.34;5070087;28;20045;-82
2021/01/29 09:17:03;;;;;;;4.25;1.85;;;;;;;1.19;87.89;92465.66;5070569;28;20443;-82
2021/01/29 09:19:29;;;;;;;;;;;;;;;1.22;87.50;92482.25;5071315;28;20045;-82
2021/01/29 09:22:06;;;;;;;4.53;1.05;;;;;;;1.26;87.79;92482.69;5070453;28;20315;-81
2021/01/29 09:24:40;;;;;;;5.30;1.45;;;;;;;1.29;88.01;92485.66;5070517;28;20144;-83
2021/01/29 09:27:35;;;;;;;2.25;1.05;;;;;;;1.37;87.80;92489.88;5070514;28;20091;-82
2021/01/29 09:30:06;;;;;;;13.65;4.85;;;;;;;1.40;87.37;92489.53;5070743;28;20077;-83
2021/01/29 09:33:00;;;;;;;3.70;1.38;;;;;;;1.48;86.80;92481.06;5070904;28;21330;-83
2021/01/29 09:35:39;;;;;;;5.20;3.17;;;;;;;1.60;86.78;92481.44;5055415;28;20052;-82
2021/01/29 09:38:10;;;;;;;9.10;1.60;;;;;;;1.55;85.35;92476.91;5070082;28;20041;-83
2021/01/29 09:40:45;;;;;;;4.07;2.40;;;;;;;1.62;85.74;92466.09;5070158;28;20522;-82
2021/01/29 09:43:22;;;;;;;3.33;1.70;;;;;;;1.66;86.10;92468.09;5070342;28;20048;-82
2021/01/29 09:45:53;;;;;;;3.63;2.30;;;;;;;1.68;85.38;92471.25;5072611;28;20045;-83
2021/01/29 09:48:24;;;;;;;2.75;1.30;;;;;;;1.74;84.62;92469.75;5070286;28;20067;-82
2021/01/29 09:51:05;;;;;;;3.35;1.83;;;;;;;1.82;84.91;92471.41;5070206;28;20064;-82
2021/01/29 09:53:39;;;;;;;3.20;1.73;;;;;;;1.89;84.61;92472.28;5070331;28;20048;-83
2021/01/29 09:56:15;;;;;;;4.75;1.85;;;;;;;1.92;84.27;92466.88;5070262;28;20049;-82
2021/01/29 09:59:25;;;;;;;4.47;2.42;;;;;;;1.94;84.24;92464.94;5070260;28;20048;-83
2021/01/29 10:02:01;;;;;;;5.78;2.45;;;;;;;1.96;83.72;92457.97;5050332;28;20072;-83
2021/01/29 10:04:51;;;;;;;3.97;2.42;;;;;;;1.89;84.03;92457.09;5050295;28;20128;-83
2021/01/29 10:07:23;;;;;;;2.58;1.40;;;;;;;1.78;84.79;92439.81;5049812;28;20056;-83
2021/01/29 10:10:09;;;;;;;2.15;1.23;;;;;;;1.93;84.71;92439.78;5050370;28;20075;-83
2021/01/29 10:12:43;;;;;;;1.52;0.95;;;;;;;2.01;84.19;92437.19;5050257;28;20060;-84
2021/01/29 10:15:16;;;;;;;3.42;1.88;;;;;;;2.08;83.67;92432.97;5050485;28;20098;-86
2021/01/29 10:17:47;;;;;;;2.35;1.77;;;;;;;2.21;84.22;92452.63;5049929;28;20391;-85
2021/01/29 10:20:24;;;;;;;4.57;1.88;;;;;;;2.32;84.59;92451.38;5050442;28;20048;-86
2021/01/29 10:23:07;;;;;;;9.48;2.55;;;;;;;2.35;84.38;92447.69;5056224;28;20131;-87
2021/01/29 10:25:44;;;;;;;4.32;2.78;;;;;;;2.28;83.68;92432.44;5071227;28;20041;-86
2021/01/29 10:28:18;;;;;;;5.00;2.08;;;;;;;2.22;83.95;92428.06;5073375;28;20048;-86
2021/01/29 10:30:51;;;;;;;9.07;2.47;;;;;;;2.31;84.59;92423.69;5073697;28;20568;-88
2021/01/29 10:33:24;;;;;;;5.38;2.40;;;;;;;2.40;83.12;92431.00;5073876;28;20389;-86
2021/01/29 10:36:00;;;;;;;2.75;1.30;;;;;;;2.39;82.56;92413.44;5072411;28;20053;-89
2021/01/29 10:38:32;;;;;;;3.13;2.20;;;;;;;2.49;82.82;92418.19;5073247;28;20060;-87
2021/01/29 10:41:14;;;;;;;4.20;1.73;;;;;;;2.48;82.57;92411.56;5073083;28;20491;-92
2021/01/29 10:43:48;;;;;;;3.60;2.05;;;;;;;2.53;83.02;92412.59;5069404;28;20053;-91
2021/01/29 10:46:52;;;;;;;6.57;3.45;;;;;;;2.79;82.15;92400.34;5052437;28;20045;-92
2021/01/29 10:49:26;;;;;;;6.18;3.10;;;;;;;3.03;81.79;92403.47;5058802;28;20170;-92
2021/01/29 10:52:03;;;;;;;3.75;2.20;;;;;;;3.13;81.41;92393.78;5062261;28;20048;-91
2021/01/29 10:54:37;;;;;;;4.35;2.20;;;;;;;3.18;80.11;92390.69;5059573;28;21184;-90
2021/01/29 10:57:14;;;;;;;6.00;2.88;;;;;;;3.43;80.51;92383.44;5055636;28;20052;-88
2021/01/29 10:59:49;;;;;;;3.88;1.40;;;;;;;3.54;79.37;92381.34;5062479;28;20159;-90
2021/01/29 11:02:26;;;;;;;8.00;2.38;;;;;;;3.60;79.57;92375.53;5069986;28;20048;-87
2021/01/29 11:04:59;;;;;;;4.28;2.17;;;;;;;3.64;78.70;92371.66;5072950;28;20056;-87
2021/01/29 11:07:30;;;;;;;4.72;1.67;;;;;;;3.58;79.21;92352.09;5072688;28;20045;-86
2021/01/29 11:10:04;;;;;;;4.32;1.85;;;;;;;3.80;79.11;92382.47;5072633;28;20048;-88
2021/01/29 11:12:34;;;;;;;4.00;1.48;;;;;;;3.86;77.54;92384.25;5072582;28;20041;-87
2021/01/29 11:15:10;;;;;;;4.35;1.45;;;;;;;3.76;77.42;92374.44;5072853;28;20056;-85
2021/01/29 11:17:42;;;;;;;3.08;2.00;;;;;;;3.79;78.23;92378.38;5072716;28;20053;-87
2021/01/29 11:20:15;;;;;;;3.00;1.20;;;;;;;3.78;77.61;92366.63;5072638;28;20462;-86
2021/01/29 11:22:56;;;;;;;2.75;1.48;;;;;;;3.79;78.51;92351.19;5072239;28;20507;-88
2021/01/29 11:25:50;;;;;;;4.93;1.27;;;;;;;3.63;79.16;92346.44;5072675;28;20101;-85
2021/01/29 11:28:35;;;;;;;2.35;1.17;;;;;;;3.57;79.73;92345.44;5066377;28;20059;-86
2021/01/29 11:31:06;;;;;;;3.28;1.83;;;;;;;3.51;79.14;92333.50;5072392;28;20053;-87
2021/01/29 11:33:37;;;;;;;5.15;2.42;;;;;;;3.41;79.84;92305.91;5071185;28;20427;-85
2021/01/29 11:36:12;;;;;;;8.45;3.85;;;;;;;3.55;80.00;92319.44;5072360;28;20101;-87
2021/01/29 11:38:50;;;;;;;4.25;1.95;;;;;;;3.51;79.68;92308.88;5067866;28;20413;-85
2021/01/29 11:41:30;;;;;;;2.83;1.48;;;;;;;3.56;80.25;92293.09;5052226;28;20564;-86
2021/01/29 11:44:08;;;;;;;2.20;1.65;;;;;;;3.41;81.06;92281.31;5052711;28;20052;-87
2021/01/29 11:46:38;;;;;;;9.25;2.10;;;;;;;3.25;81.76;92279.88;5052301;28;20045;-86
2021/01/29 11:49:12;;;;;;;3.80;2.05;;;;;;;3.32;81.35;92273.06;5052148;28;20055;-85
2021/01/29 11:51:41;;;;;;;5.03;2.55;;;;;;;3.76;79.26;92280.47;5052089;28;20092;-85
2021/01/29 11:54:15;;;;;;;6.18;2.97;;;;;;;3.99;78.77;92257.25;5068839;28;20056;-84
2021/01/29 11:56:53;;;;;;;7.78;2.28;;;;;;;4.10;78.54;92255.91;5072101;28;20057;-84
2021/01/29 11:59:29;;;;;;;3.65;2.50;;;;;;;4.04;78.87;92241.44;5071512;28;20044;-85
2021/01/29 12:02:01;;;;;;;6.95;2.50;;;;;;;3.93;78.77;92240.22;5071706;28;20045;-84
2021/01/29 12:04:39;;;;;;;7.35;3.40;;;;;;;4.00;78.29;92241.06;5071535;28;20056;-86
2021/01/29 12:07:12;;;;;;;5.90;2.10;;;;;;;4.15;78.58;92240.06;5071767;28;20044;-86
2021/01/29 12:09:48;;;;;;;4.10;1.92;;;;;;;4.29;77.93;92233.25;5071735;28;20102;-83
2021/01/29 12:12:20;;;;;;;7.13;2.80;;;;;;;4.27;77.41;92218.19;5071520;28;20060;-85
2021/01/29 12:15:09;;;;;;;4.10;2.17;;;;;;;4.16;77.20;92213.69;5071481;28;20041;-83
2021/01/29 12:17:36;;;;;;;6.85;3.20;;;;;;;4.06;77.47;92208.97;5071449;28;20603;-84
2021/01/29 12:20:06;;;;;;;54.58;16.25;;;;;;;4.11;77.85;92213.47;5069798;28;20070;-85
2021/01/29 12:22:37;;;;;;;23.55;7.13;;;;;;;4.27;77.09;92223.25;5070930;28;20483;-84
2021/01/29 12:25:36;;;;;;;17.67;7.95;;;;;;;4.13;77.75;92204.69;5070103;28;20114;-83
2021/01/29 12:28:10;;;;;;;34.47;11.48;;;;;;;4.27;77.81;92215.63;5062315;28;20040;-84
2021/01/29 12:30:44;;;;;;;22.05;7.15;;;;;;;4.23;78.04;92208.59;5068316;28;20519;-83